createdAt,value
2023-03-23T15:58:35.806Z,17.67
2023-03-23T16:01:26.664Z,17.37
2023-03-23T16:03:55.693Z,17.35
2023-03-23T16:06:27.484Z,17.39
2023-03-23T16:08:55.816Z,17.60
2023-03-23T16:11:25.011Z,17.58
2023-03-23T16:13:53.528Z,17.52
2023-03-23T16:16:27.072Z,17.49
2023-03-23T16:18:54.419Z,17.57
2023-03-23T16:21:22.371Z,17.75
2023-03-23T16:23:49.281Z,17.86
2023-03-23T16:26:16.078Z,17.87
2023-03-23T16:28:43.835Z,17.64
2023-03-23T16:31:11.121Z,17.63
2023-03-23T16:33:38.127Z,17.60
2023-03-23T16:36:05.284Z,17.42
2023-03-23T16:38:32.008Z,17.18
2023-03-23T16:40:58.781Z,17.65
2023-03-23T16:43:25.592Z,17.34
2023-03-23T16:45:56.185Z,17.29
2023-03-23T16:48:23.562Z,17.13
2023-03-23T16:50:51.781Z,17.16
2023-03-23T16:53:18.914Z,17.48
2023-03-23T16:55:48.165Z,17.29
2023-03-23T16:58:17.742Z,17.56
2023-03-23T17:00:50.774Z,17.33
2023-03-23T17:03:22.248Z,17.26
2023-03-23T17:05:51.055Z,17.48
2023-03-23T17:08:19.470Z,17.53
2023-03-23T17:10:46.360Z,17.67
2023-03-23T17:13:13.178Z,17.04
2023-03-23T17:15:43.671Z,17.28
2023-03-23T17:18:12.642Z,17.21
2023-03-23T17:20:39.582Z,16.86
2023-03-23T17:23:06.516Z,17.08
2023-03-23T17:25:33.292Z,17.04
2023-03-23T17:28:05.767Z,17.23
2023-03-23T17:30:34.888Z,16.74
2023-03-23T17:33:01.756Z,16.74
2023-03-23T17:35:28.497Z,16.97
2023-03-23T17:37:55.581Z,17.06
2023-03-23T17:40:22.236Z,17.12
2023-03-23T17:42:49.082Z,17.27
2023-03-23T17:45:16.266Z,17.28
2023-03-23T17:47:42.927Z,17.18
2023-03-23T17:50:11.935Z,17.36
2023-03-23T17:52:40.236Z,17.51
2023-03-23T17:55:07.400Z,17.44
2023-03-23T17:57:35.044Z,17.42
2023-03-23T18:00:02.727Z,17.33
2023-03-23T18:02:33.942Z,17.45
2023-03-23T18:05:00.846Z,17.40
2023-03-23T18:07:27.863Z,17.47
2023-03-23T18:09:59.779Z,17.51
2023-03-23T18:12:26.998Z,17.48
2023-03-23T18:14:59.833Z,17.53
2023-03-23T18:17:26.932Z,17.57
2023-03-23T18:19:54.005Z,17.44
2023-03-23T18:22:21.150Z,17.22
2023-03-23T18:24:47.829Z,17.25
2023-03-23T18:27:14.828Z,17.23
2023-03-23T18:29:41.681Z,17.24
2023-03-23T18:32:08.501Z,17.17
2023-03-23T18:34:36.824Z,17.23
2023-03-23T18:37:04.282Z,17.04
2023-03-23T18:39:33.815Z,16.92
2023-03-23T18:42:01.215Z,16.95
2023-03-23T18:44:28.019Z,16.67
2023-03-23T18:46:54.663Z,16.69
2023-03-23T18:49:21.607Z,16.84
2023-03-23T18:51:48.400Z,16.74
2023-03-23T18:54:15.175Z,16.50
2023-03-23T18:56:41.825Z,16.72
2023-03-23T18:59:09.080Z,16.61
2023-03-23T19:01:35.984Z,16.76
2023-03-23T19:04:06.850Z,16.75
2023-03-23T19:06:34.752Z,16.76
2023-03-23T19:09:01.708Z,16.89
2023-03-23T19:11:28.517Z,16.91
2023-03-23T19:14:02.298Z,16.96
2023-03-23T19:16:32.713Z,17.08
2023-03-23T19:19:01.483Z,16.89
2023-03-23T19:21:29.845Z,16.85
2023-03-23T19:23:58.351Z,16.94
2023-03-23T19:26:34.746Z,16.79
2023-03-23T19:29:25.248Z,16.83
2023-03-23T19:31:50.115Z,16.93
2023-03-23T19:34:18.178Z,17.00
2023-03-23T19:36:53.815Z,16.98
2023-03-23T19:39:22.081Z,16.84
2023-03-23T19:41:50.553Z,16.94
2023-03-23T19:44:17.980Z,16.85
2023-03-23T19:46:45.338Z,16.99
2023-03-23T19:49:12.242Z,16.96
2023-03-23T19:51:39.806Z,17.01
2023-03-23T19:54:07.893Z,16.90
2023-03-23T19:56:35.675Z,17.00
2023-03-23T19:59:02.487Z,17.07
2023-03-23T20:01:29.244Z,17.08
2023-03-23T20:03:59.753Z,17.13
2023-03-23T20:06:29.065Z,17.16
2023-03-23T20:08:56.857Z,17.19
2023-03-23T20:11:23.668Z,17.16
2023-03-23T20:13:50.734Z,17.20
2023-03-23T20:16:18.434Z,17.29
2023-03-23T20:18:46.374Z,17.21
2023-03-23T20:21:18.904Z,17.30
2023-03-23T20:23:46.325Z,17.16
2023-03-23T20:26:19.512Z,17.16
2023-03-23T20:28:47.741Z,17.19
2023-03-23T20:31:23.418Z,17.20
2023-03-23T20:34:00.994Z,17.15
2023-03-23T20:36:35.803Z,17.26
2023-03-23T20:39:05.876Z,17.13
2023-03-23T20:41:35.757Z,17.07
2023-03-23T20:44:03.243Z,17.24
2023-03-23T20:46:29.895Z,17.17
2023-03-23T20:48:57.301Z,17.13
2023-03-23T20:51:24.236Z,17.04
2023-03-23T20:53:50.861Z,17.09
2023-03-23T20:56:17.555Z,17.00
2023-03-23T20:58:44.560Z,17.02
2023-03-23T21:01:15.885Z,16.96
2023-03-23T21:03:43.749Z,16.73
2023-03-23T21:06:11.872Z,16.83
2023-03-23T21:08:40.772Z,16.99
2023-03-23T21:11:10.293Z,16.99
2023-03-23T21:13:37.087Z,17.06
2023-03-23T21:16:05.026Z,17.09
2023-03-23T21:18:32.380Z,16.81
2023-03-23T21:21:00.305Z,17.11
2023-03-23T21:23:29.476Z,17.11
2023-03-23T21:26:01.627Z,17.05
2023-03-23T21:28:28.447Z,17.14
2023-03-23T21:30:59.115Z,17.17
2023-03-23T21:33:26.086Z,16.98
2023-03-23T21:35:52.844Z,17.06
2023-03-23T21:38:19.887Z,17.02
2023-03-23T21:40:46.915Z,16.98
2023-03-23T21:43:16.063Z,17.00
2023-03-23T21:45:44.801Z,17.03
2023-03-23T21:48:13.283Z,17.00
2023-03-23T21:50:44.463Z,16.95
2023-03-23T21:53:12.711Z,16.96
2023-03-23T21:55:41.882Z,16.88
2023-03-23T21:58:09.627Z,16.61
2023-03-23T22:00:36.899Z,16.77
2023-03-23T22:03:04.618Z,16.73
2023-03-23T22:05:32.156Z,16.68
2023-03-23T22:07:58.844Z,16.74
2023-03-23T22:10:26.006Z,16.85
2023-03-23T22:12:55.505Z,16.72
2023-03-23T22:15:27.701Z,16.77
2023-03-23T22:17:55.129Z,16.81
2023-03-23T22:20:22.002Z,16.83
2023-03-23T22:22:49.164Z,16.70
2023-03-23T22:25:15.957Z,16.81
2023-03-23T22:27:43.264Z,16.77
2023-03-23T22:30:11.223Z,16.66
2023-03-23T22:32:38.129Z,16.75
2023-03-23T22:35:06.866Z,16.65
2023-03-23T22:37:33.644Z,16.72
2023-03-23T22:40:00.390Z,16.82
2023-03-23T22:42:27.119Z,16.85
2023-03-23T22:44:53.857Z,16.71
2023-03-23T22:47:20.579Z,16.76
2023-03-23T22:49:47.273Z,16.76
2023-03-23T22:52:14.731Z,16.71
2023-03-23T22:54:41.427Z,16.76
2023-03-23T22:57:08.418Z,16.69
2023-03-23T22:59:35.145Z,16.70
2023-03-23T23:02:01.841Z,16.69
2023-03-23T23:04:28.595Z,16.55
2023-03-23T23:07:03.183Z,16.51
2023-03-23T23:09:33.441Z,16.39
2023-03-23T23:12:00.174Z,16.30
2023-03-23T23:14:27.189Z,16.38
2023-03-23T23:16:54.056Z,16.28
2023-03-23T23:19:20.836Z,16.42
2023-03-23T23:21:47.538Z,16.37
2023-03-23T23:24:14.648Z,16.30
2023-03-23T23:26:41.698Z,16.27
2023-03-23T23:29:09.276Z,16.67
2023-03-23T23:31:36.097Z,16.84
2023-03-23T23:34:04.188Z,16.83
2023-03-23T23:36:32.399Z,16.83
2023-03-23T23:39:01.063Z,16.72
2023-03-23T23:41:27.996Z,16.38
2023-03-23T23:43:55.314Z,16.17
2023-03-23T23:46:22.361Z,16.23
2023-03-23T23:48:49.103Z,16.22
2023-03-23T23:51:17.469Z,15.99
2023-03-23T23:53:46.179Z,16.17
2023-03-23T23:56:14.214Z,15.98
2023-03-23T23:58:40.995Z,16.15
